sensor_id;sensor_type;location;lat;lon;timestamp;pressure;altitude;pressure_sealevel;temperature;humidity
59240;BME280;45010;53.640;10.578;2022-12-07T00:00:39;100501.28;;;23.60;38.90
59240;BME280;45010;53.640;10.578;2022-12-07T00:03:41;100474.88;;;23.46;38.73
59240;BME280;45010;53.640;10.578;2022-12-07T00:06:43;100485.44;;;23.65;38.52
59240;BME280;45010;53.640;10.578;2022-12-07T00:09:43;100478.63;;;23.69;38.63
59240;BME280;45010;53.640;10.578;2022-12-07T00:12:43;100463.91;;;23.67;38.77
59240;BME280;45010;53.640;10.578;2022-12-07T00:15:44;100467.81;;;23.76;38.65
59240;BME280;45010;53.640;10.578;2022-12-07T00:18:45;100457.53;;;23.80;38.71
59240;BME280;45010;53.640;10.578;2022-12-07T00:21:45;100451.75;;;23.83;38.49
59240;BME280;45010;53.640;10.578;2022-12-07T00:24:45;100451.25;;;23.86;38.51
59240;BME280;45010;53.640;10.578;2022-12-07T00:27:46;100453.47;;;23.89;38.39
59240;BME280;45010;53.640;10.578;2022-12-07T00:30:46;100446.28;;;23.89;38.44
59240;BME280;45010;53.640;10.578;2022-12-07T00:33:47;100438.53;;;23.88;38.18
59240;BME280;45010;53.640;10.578;2022-12-07T00:36:48;100429.63;;;23.94;38.28
59240;BME280;45010;53.640;10.578;2022-12-07T00:39:49;100433.19;;;24.00;38.21
59240;BME280;45010;53.640;10.578;2022-12-07T00:42:49;100362.84;;;23.60;38.26
59240;BME280;45010;53.640;10.578;2022-12-07T00:45:49;100428.78;;;24.05;38.27
59240;BME280;45010;53.640;10.578;2022-12-07T00:48:51;100418.59;;;24.02;37.92
59240;BME280;45010;53.640;10.578;2022-12-07T00:51:52;100417.22;;;24.12;38.13
59240;BME280;45010;53.640;10.578;2022-12-07T00:54:52;100409.81;;;24.14;38.13
59240;BME280;45010;53.640;10.578;2022-12-07T00:57:52;100408.53;;;24.16;37.80
59240;BME280;45010;53.640;10.578;2022-12-07T01:00:53;100402.72;;;24.20;38.09
59240;BME280;45010;53.640;10.578;2022-12-07T01:03:53;100409.19;;;24.24;37.85
59240;BME280;45010;53.640;10.578;2022-12-07T01:06:54;100400.97;;;24.25;37.84
59240;BME280;45010;53.640;10.578;2022-12-07T01:09:54;100405.81;;;24.28;37.78
59240;BME280;45010;53.640;10.578;2022-12-07T01:12:54;100409.06;;;24.30;38.04
59240;BME280;45010;53.640;10.578;2022-12-07T01:15:59;100399.53;;;24.35;37.69
59240;BME280;45010;53.640;10.578;2022-12-07T01:19:01;100391.47;;;24.29;37.61
59240;BME280;45010;53.640;10.578;2022-12-07T01:22:02;100395.34;;;24.39;37.63
59240;BME280;45010;53.640;10.578;2022-12-07T01:25:02;100369.56;;;24.27;37.67
59240;BME280;45010;53.640;10.578;2022-12-07T01:28:02;100375.66;;;24.40;37.53
59240;BME280;45010;53.640;10.578;2022-12-07T01:31:07;100384.22;;;24.42;37.48
59240;BME280;45010;53.640;10.578;2022-12-07T01:34:08;100376.78;;;24.44;37.43
59240;BME280;45010;53.640;10.578;2022-12-07T01:37:08;100376.56;;;24.45;37.32
59240;BME280;45010;53.640;10.578;2022-12-07T01:40:10;100376.31;;;24.47;37.09
59240;BME280;45010;53.640;10.578;2022-12-07T01:43:18;100371.47;;;24.44;36.97
59240;BME280;45010;53.640;10.578;2022-12-07T01:46:19;100369.84;;;24.43;37.03
59240;BME280;45010;53.640;10.578;2022-12-07T01:52:32;100377.84;;;24.43;37.14
59240;BME280;45010;53.640;10.578;2022-12-07T01:55:34;100370.31;;;24.40;36.84
59240;BME280;45010;53.640;10.578;2022-12-07T01:58:35;100367.88;;;24.38;36.97
59240;BME280;45010;53.640;10.578;2022-12-07T02:01:36;100370.81;;;24.37;36.96
59240;BME280;45010;53.640;10.578;2022-12-07T02:04:36;100360.59;;;24.34;37.05
59240;BME280;45010;53.640;10.578;2022-12-07T02:07:37;100355.44;;;24.27;37.02
59240;BME280;45010;53.640;10.578;2022-12-07T02:10:38;100344.91;;;24.20;36.90
59240;BME280;45010;53.640;10.578;2022-12-07T02:13:41;100357.06;;;24.28;36.72
59240;BME280;45010;53.640;10.578;2022-12-07T02:16:53;100348.63;;;24.19;36.93
59240;BME280;45010;53.640;10.578;2022-12-07T02:20:28;100339.09;;;24.23;36.88
59240;BME280;45010;53.640;10.578;2022-12-07T02:27:43;100346.19;;;24.17;36.92
59240;BME280;45010;53.640;10.578;2022-12-07T02:30:47;100344.56;;;24.16;36.73
59240;BME280;45010;53.640;10.578;2022-12-07T02:34:03;100344.81;;;24.15;36.89
59240;BME280;45010;53.640;10.578;2022-12-07T02:37:12;100331.75;;;24.01;36.87
59240;BME280;45010;53.640;10.578;2022-12-07T02:40:22;100352.13;;;24.08;36.96
59240;BME280;45010;53.640;10.578;2022-12-07T02:43:28;100344.34;;;24.06;36.96
59240;BME280;45010;53.640;10.578;2022-12-07T02:46:44;100347.50;;;24.03;36.92
59240;BME280;45010;53.640;10.578;2022-12-07T02:49:47;100336.41;;;23.94;37.02
59240;BME280;45010;53.640;10.578;2022-12-07T02:52:49;100342.84;;;23.98;36.93
59240;BME280;45010;53.640;10.578;2022-12-07T02:55:49;100335.34;;;23.95;36.85
59240;BME280;45010;53.640;10.578;2022-12-07T02:59:01;100334.78;;;23.93;37.18
59240;BME280;45010;53.640;10.578;2022-12-07T03:02:28;100325.53;;;23.84;37.16
59240;BME280;45010;53.640;10.578;2022-12-07T03:05:54;100336.84;;;23.91;37.04
59240;BME280;45010;53.640;10.578;2022-12-07T03:09:08;100326.00;;;23.81;36.77
59240;BME280;45010;53.640;10.578;2022-12-07T03:12:17;100325.53;;;23.84;37.10
59240;BME280;45010;53.640;10.578;2022-12-07T03:15:27;100297.69;;;23.62;37.13
59240;BME280;45010;53.640;10.578;2022-12-07T03:18:34;100320.66;;;23.81;37.07
59240;BME280;45010;53.640;10.578;2022-12-07T03:22:03;100309.84;;;23.70;37.08
59240;BME280;45010;53.640;10.578;2022-12-07T03:25:09;100310.28;;;23.67;36.99
59240;BME280;45010;53.640;10.578;2022-12-07T03:28:12;100322.09;;;23.71;37.30
59240;BME280;45010;53.640;10.578;2022-12-07T03:31:29;100310.78;;;23.64;37.17
59240;BME280;45010;53.640;10.578;2022-12-07T03:34:35;100320.16;;;23.67;37.35
59240;BME280;45010;53.640;10.578;2022-12-07T03:37:45;100328.34;;;23.65;37.28
59240;BME280;45010;53.640;10.578;2022-12-07T03:41:14;100322.22;;;23.64;37.28
59240;BME280;45010;53.640;10.578;2022-12-07T03:44:17;100322.34;;;23.58;37.24
59240;BME280;45010;53.640;10.578;2022-12-07T03:47:29;100311.13;;;23.56;37.29
59240;BME280;45010;53.640;10.578;2022-12-07T03:50:38;100321.88;;;23.61;37.50
59240;BME280;45010;53.640;10.578;2022-12-07T03:53:46;100329.06;;;23.60;37.37
59240;BME280;45010;53.640;10.578;2022-12-07T03:56:49;100327.69;;;23.58;37.37
59240;BME280;45010;53.640;10.578;2022-12-07T03:59:51;100326.19;;;23.50;37.21
59240;BME280;45010;53.640;10.578;2022-12-07T04:02:55;100337.16;;;23.54;37.45
59240;BME280;45010;53.640;10.578;2022-12-07T04:05:55;100340.06;;;23.52;37.61
59240;BME280;45010;53.640;10.578;2022-12-07T04:08:56;100340.88;;;23.53;37.20
59240;BME280;45010;53.640;10.578;2022-12-07T04:11:56;100334.88;;;23.45;37.44
59240;BME280;45010;53.640;10.578;2022-12-07T04:14:56;100339.94;;;23.47;37.44
59240;BME280;45010;53.640;10.578;2022-12-07T04:17:57;100342.94;;;23.50;37.38
59240;BME280;45010;53.640;10.578;2022-12-07T04:20:57;100326.44;;;23.36;37.78
59240;BME280;45010;53.640;10.578;2022-12-07T04:23:57;100343.44;;;23.47;37.35
59240;BME280;45010;53.640;10.578;2022-12-07T04:26:58;100335.22;;;23.37;37.38
59240;BME280;45010;53.640;10.578;2022-12-07T04:29:58;100347.13;;;23.46;37.42
59240;BME280;45010;53.640;10.578;2022-12-07T04:32:59;100350.84;;;23.45;37.60
59240;BME280;45010;53.640;10.578;2022-12-07T04:35:59;100344.13;;;23.43;37.46
59240;BME280;45010;53.640;10.578;2022-12-07T04:39:00;100326.50;;;23.30;37.32
59240;BME280;45010;53.640;10.578;2022-12-07T04:42:01;100332.31;;;23.27;37.51
59240;BME280;45010;53.640;10.578;2022-12-07T04:45:02;100358.72;;;23.40;37.34
59240;BME280;45010;53.640;10.578;2022-12-07T04:48:02;100349.44;;;23.31;37.66
59240;BME280;45010;53.640;10.578;2022-12-07T04:51:03;100359.75;;;23.39;37.59
59240;BME280;45010;53.640;10.578;2022-12-07T04:54:04;100357.53;;;23.36;37.90
59240;BME280;45010;53.640;10.578;2022-12-07T04:57:04;100362.88;;;23.36;37.89
59240;BME280;45010;53.640;10.578;2022-12-07T05:00:05;100358.59;;;23.35;37.50
59240;BME280;45010;53.640;10.578;2022-12-07T05:03:05;100355.22;;;23.28;37.95
59240;BME280;45010;53.640;10.578;2022-12-07T05:06:06;100357.28;;;23.25;37.48
59240;BME280;45010;53.640;10.578;2022-12-07T05:09:07;100367.03;;;23.32;37.79
59240;BME280;45010;53.640;10.578;2022-12-07T05:12:08;100355.66;;;23.24;37.69
59240;BME280;45010;53.640;10.578;2022-12-07T05:15:08;100370.72;;;23.31;37.97
59240;BME280;45010;53.640;10.578;2022-12-07T05:18:10;100356.59;;;23.18;37.97
59240;BME280;45010;53.640;10.578;2022-12-07T05:21:12;100363.41;;;23.26;37.68
59240;BME280;45010;53.640;10.578;2022-12-07T05:24:14;100369.56;;;23.27;37.86
59240;BME280;45010;53.640;10.578;2022-12-07T05:27:14;100362.59;;;23.25;38.09
59240;BME280;45010;53.640;10.578;2022-12-07T05:30:15;100358.19;;;23.19;37.76
59240;BME280;45010;53.640;10.578;2022-12-07T05:33:15;100379.59;;;23.24;38.21
59240;BME280;45010;53.640;10.578;2022-12-07T05:36:15;100383.31;;;23.23;37.77
59240;BME280;45010;53.640;10.578;2022-12-07T05:39:16;100379.81;;;23.23;37.84
59240;BME280;45010;53.640;10.578;2022-12-07T05:42:16;100373.72;;;23.22;37.97
59240;BME280;45010;53.640;10.578;2022-12-07T05:45:17;100372.09;;;23.21;37.83
59240;BME280;45010;53.640;10.578;2022-12-07T05:48:17;100363.50;;;23.19;37.90
59240;BME280;45010;53.640;10.578;2022-12-07T05:51:18;100365.13;;;23.20;38.29
59240;BME280;45010;53.640;10.578;2022-12-07T05:54:18;100359.13;;;23.13;38.02
59240;BME280;45010;53.640;10.578;2022-12-07T05:57:19;100350.78;;;23.09;37.97
59240;BME280;45010;53.640;10.578;2022-12-07T06:00:19;100360.28;;;23.17;37.97
59240;BME280;45010;53.640;10.578;2022-12-07T06:03:20;100359.47;;;23.17;37.95
59240;BME280;45010;53.640;10.578;2022-12-07T06:06:20;100364.78;;;23.17;38.36
59240;BME280;45010;53.640;10.578;2022-12-07T06:09:22;100368.13;;;23.12;38.10
59240;BME280;45010;53.640;10.578;2022-12-07T06:12:23;100363.38;;;23.14;38.24
59240;BME280;45010;53.640;10.578;2022-12-07T06:15:36;100361.56;;;23.15;38.29
59240;BME280;45010;53.640;10.578;2022-12-07T06:18:37;100362.38;;;23.15;38.44
59240;BME280;45010;53.640;10.578;2022-12-07T06:21:37;100359.13;;;23.13;38.25
59240;BME280;45010;53.640;10.578;2022-12-07T06:24:38;100371.38;;;23.14;38.27
59240;BME280;45010;53.640;10.578;2022-12-07T06:27:38;100368.72;;;23.14;38.50
59240;BME280;45010;53.640;10.578;2022-12-07T06:30:38;100360.03;;;23.07;38.46
59240;BME280;45010;53.640;10.578;2022-12-07T06:33:40;100355.66;;;23.13;38.49
59240;BME280;45010;53.640;10.578;2022-12-07T06:36:40;100362.81;;;23.12;38.36
59240;BME280;45010;53.640;10.578;2022-12-07T06:39:41;100368.13;;;23.12;38.33
59240;BME280;45010;53.640;10.578;2022-12-07T06:42:41;100362.81;;;23.12;38.66
59240;BME280;45010;53.640;10.578;2022-12-07T06:45:42;100363.03;;;23.10;38.54
59240;BME280;45010;53.640;10.578;2022-12-07T06:48:42;100340.25;;;22.91;38.39
59240;BME280;45010;53.640;10.578;2022-12-07T06:51:43;100362.25;;;23.10;38.60
59240;BME280;45010;53.640;10.578;2022-12-07T06:54:43;100357.97;;;23.09;38.36
59240;BME280;45010;53.640;10.578;2022-12-07T06:57:45;100359.00;;;23.08;38.76
59240;BME280;45010;53.640;10.578;2022-12-07T07:00:48;100349.06;;;23.03;38.64
59240;BME280;45010;53.640;10.578;2022-12-07T07:03:48;100362.25;;;23.10;38.76
59240;BME280;45010;53.640;10.578;2022-12-07T07:06:48;100353.44;;;23.09;38.85
59240;BME280;45010;53.640;10.578;2022-12-07T07:09:49;100363.28;;;23.09;38.57
59240;BME280;45010;53.640;10.578;2022-12-07T07:12:49;100371.03;;;23.10;38.87
59240;BME280;45010;53.640;10.578;2022-12-07T07:15:49;100366.75;;;23.09;38.59
59240;BME280;45010;53.640;10.578;2022-12-07T07:18:50;100370.22;;;23.10;38.58
59240;BME280;45010;53.640;10.578;2022-12-07T07:21:50;100360.63;;;23.09;38.59
59240;BME280;45010;53.640;10.578;2022-12-07T07:24:50;100359.59;;;23.10;38.93
59240;BME280;45010;53.640;10.578;2022-12-07T07:27:51;100359.00;;;23.08;38.71
59240;BME280;45010;53.640;10.578;2022-12-07T07:30:51;100299.06;;;22.69;38.87
59240;BME280;45010;53.640;10.578;2022-12-07T07:33:51;100353.66;;;23.08;38.58
59240;BME280;45010;53.640;10.578;2022-12-07T07:36:52;100355.53;;;23.07;38.66
59240;BME280;45010;53.640;10.578;2022-12-07T07:39:52;100366.97;;;23.08;38.99
59240;BME280;45010;53.640;10.578;2022-12-07T07:42:54;100355.63;;;23.01;38.55
59240;BME280;45010;53.640;10.578;2022-12-07T07:45:54;100367.78;;;23.08;38.81
59240;BME280;45010;53.640;10.578;2022-12-07T07:48:54;100373.94;;;23.09;38.58
59240;BME280;45010;53.640;10.578;2022-12-07T07:51:55;100341.88;;;22.92;38.66
59240;BME280;45010;53.640;10.578;2022-12-07T07:54:55;100371.50;;;23.07;38.52
59240;BME280;45010;53.640;10.578;2022-12-07T07:57:55;100382.13;;;23.07;38.67
59240;BME280;45010;53.640;10.578;2022-12-07T08:00:56;100376.59;;;23.09;38.94
59240;BME280;45010;53.640;10.578;2022-12-07T08:03:56;100382.94;;;23.08;38.71
59240;BME280;45010;53.640;10.578;2022-12-07T08:06:56;100376.81;;;23.07;38.97
59240;BME280;45010;53.640;10.578;2022-12-07T08:09:57;100381.31;;;23.07;38.59
59240;BME280;45010;53.640;10.578;2022-12-07T08:12:58;100389.28;;;23.07;38.82
59240;BME280;45010;53.640;10.578;2022-12-07T08:16:10;100385.00;;;23.06;38.52
59240;BME280;45010;53.640;10.578;2022-12-07T08:19:11;100380.53;;;23.06;38.70
59240;BME280;45010;53.640;10.578;2022-12-07T08:22:12;100377.50;;;23.03;38.57
59240;BME280;45010;53.640;10.578;2022-12-07T08:25:12;100385.00;;;23.06;38.81
59240;BME280;45010;53.640;10.578;2022-12-07T08:28:13;100390.34;;;23.06;38.55
59240;BME280;45010;53.640;10.578;2022-12-07T08:31:16;100373.69;;;22.98;38.85
59240;BME280;45010;53.640;10.578;2022-12-07T08:34:16;100372.06;;;22.97;38.60
59240;BME280;45010;53.640;10.578;2022-12-07T08:37:17;100382.59;;;23.04;38.40
59240;BME280;45010;53.640;10.578;2022-12-07T08:40:17;100377.25;;;23.04;38.65
59240;BME280;45010;53.640;10.578;2022-12-07T08:43:18;100381.53;;;23.05;38.54
59240;BME280;45010;53.640;10.578;2022-12-07T08:46:24;100376.47;;;23.04;38.85
59240;BME280;45010;53.640;10.578;2022-12-07T08:49:38;100376.47;;;23.04;38.85
59240;BME280;45010;53.640;10.578;2022-12-07T08:52:40;100372.06;;;22.97;38.54
59240;BME280;45010;53.640;10.578;2022-12-07T08:55:41;100379.13;;;23.04;38.94
59240;BME280;45010;53.640;10.578;2022-12-07T08:58:42;100345.66;;;22.84;38.61
59240;BME280;45010;53.640;10.578;2022-12-07T09:01:42;100355.38;;;22.90;38.68
59240;BME280;45010;53.640;10.578;2022-12-07T09:04:43;100389.16;;;23.02;38.44
59240;BME280;45010;53.640;10.578;2022-12-07T09:07:46;100384.66;;;23.02;38.54
59240;BME280;45010;53.640;10.578;2022-12-07T09:10:49;100385.94;;;23.00;38.79
59240;BME280;45010;53.640;10.578;2022-12-07T09:13:49;100389.41;;;23.00;38.65
59240;BME280;45010;53.640;10.578;2022-12-07T09:16:49;100393.91;;;23.00;38.51
59240;BME280;45010;53.640;10.578;2022-12-07T09:19:50;100351.44;;;22.81;38.35
59240;BME280;45010;53.640;10.578;2022-12-07T09:22:50;100379.00;;;22.98;38.81
59240;BME280;45010;53.640;10.578;2022-12-07T09:25:50;100385.38;;;22.97;38.43
59240;BME280;45010;53.640;10.578;2022-12-07T09:28:51;100382.69;;;22.97;38.61
59240;BME280;45010;53.640;10.578;2022-12-07T09:31:52;100376.66;;;22.90;38.74
59240;BME280;45010;53.640;10.578;2022-12-07T09:34:52;100386.41;;;22.96;38.52
59240;BME280;45010;53.640;10.578;2022-12-07T09:37:53;100382.09;;;22.95;38.44
59240;BME280;45010;53.640;10.578;2022-12-07T09:40:54;100379.44;;;22.95;38.59
59240;BME280;45010;53.640;10.578;2022-12-07T09:44:02;100366.94;;;22.84;38.72
59240;BME280;45010;53.640;10.578;2022-12-07T09:47:04;100390.06;;;22.95;38.50
59240;BME280;45010;53.640;10.578;2022-12-07T09:50:10;100380.34;;;22.89;38.23
59240;BME280;45010;53.640;10.578;2022-12-07T09:53:23;100383.25;;;22.88;38.23
59240;BME280;45010;53.640;10.578;2022-12-07T09:56:24;100379.91;;;22.92;38.45
59240;BME280;45010;53.640;10.578;2022-12-07T09:59:25;100371.09;;;22.80;38.55
59240;BME280;45010;53.640;10.578;2022-12-07T10:02:41;100382.56;;;22.92;38.27
59240;BME280;45010;53.640;10.578;2022-12-07T10:05:45;100377.69;;;22.89;38.41
59240;BME280;45010;53.640;10.578;2022-12-07T10:08:46;100373.91;;;22.85;38.53
59240;BME280;45010;53.640;10.578;2022-12-07T10:12:04;100377.69;;;22.89;38.35
59240;BME280;45010;53.640;10.578;2022-12-07T10:15:05;100388.13;;;22.91;38.27
59240;BME280;45010;53.640;10.578;2022-12-07T10:18:17;100385.66;;;22.89;38.66
59240;BME280;45010;53.640;10.578;2022-12-07T10:21:25;100389.38;;;22.88;39.12
59240;BME280;45010;53.640;10.578;2022-12-07T10:24:26;100365.31;;;22.83;39.71
59240;BME280;45010;53.640;10.578;2022-12-07T10:27:31;100375.50;;;22.86;39.50
59240;BME280;45010;53.640;10.578;2022-12-07T10:30:32;100386.63;;;22.95;39.72
59240;BME280;45010;53.640;10.578;2022-12-07T10:33:53;100376.66;;;22.90;39.26
59240;BME280;45010;53.640;10.578;2022-12-07T10:40:30;100365.56;;;22.93;39.27
59240;BME280;45010;53.640;10.578;2022-12-07T10:43:31;100385.50;;;23.03;39.19
59240;BME280;45010;53.640;10.578;2022-12-07T10:56:29;100372.41;;;23.13;39.54
59240;BME280;45010;53.640;10.578;2022-12-07T10:59:45;100370.94;;;23.17;39.06
59240;BME280;45010;53.640;10.578;2022-12-07T11:03:17;100365.13;;;23.20;38.97
59240;BME280;45010;53.640;10.578;2022-12-07T11:06:33;100348.81;;;23.17;39.26
59240;BME280;45010;53.640;10.578;2022-12-07T11:13:11;100346.63;;;23.25;38.59
59240;BME280;45010;53.640;10.578;2022-12-07T11:16:48;100351.66;;;23.34;38.01
59240;BME280;45010;53.640;10.578;2022-12-07T11:30:07;100342.50;;;23.54;38.32
59240;BME280;45010;53.640;10.578;2022-12-07T11:33:25;100342.00;;;23.57;38.38
59240;BME280;45010;53.640;10.578;2022-12-07T11:39:41;100328.34;;;23.65;38.04
59240;BME280;45010;53.640;10.578;2022-12-07T11:43:04;100336.47;;;23.70;37.95
59240;BME280;45010;53.640;10.578;2022-12-07T11:46:08;100313.78;;;23.68;38.28
59240;BME280;45010;53.640;10.578;2022-12-07T11:49:19;100324.88;;;23.76;37.93
59240;BME280;45010;53.640;10.578;2022-12-07T11:52:30;100310.97;;;23.74;37.79
59240;BME280;45010;53.640;10.578;2022-12-07T11:58:57;100319.16;;;23.85;38.05
59240;BME280;45010;53.640;10.578;2022-12-07T12:02:32;100319.25;;;23.90;37.99
59240;BME280;45010;53.640;10.578;2022-12-07T12:05:32;100262.66;;;23.54;36.03
59240;BME280;45010;53.640;10.578;2022-12-07T12:12:31;100323.25;;;23.75;30.64
59240;BME280;45010;53.640;10.578;2022-12-07T12:15:46;100315.63;;;23.67;31.22
59240;BME280;45010;53.640;10.578;2022-12-07T12:18:58;100314.09;;;23.71;32.22
59240;BME280;45010;53.640;10.578;2022-12-07T12:22:14;100292.03;;;23.59;32.36
59240;BME280;45010;53.640;10.578;2022-12-07T12:25:30;100326.00;;;23.81;32.55
59240;BME280;45010;53.640;10.578;2022-12-07T12:28:39;100321.63;;;23.74;33.15
59240;BME280;45010;53.640;10.578;2022-12-07T12:31:41;100324.38;;;23.80;33.49
59240;BME280;45010;53.640;10.578;2022-12-07T12:37:51;100310.97;;;23.74;34.02
59240;BME280;45010;53.640;10.578;2022-12-07T12:40:53;100318.59;;;23.83;34.00
59240;BME280;45010;53.640;10.578;2022-12-07T12:43:53;100314.06;;;23.83;34.24
59240;BME280;45010;53.640;10.578;2022-12-07T12:53:24;100305.38;;;23.88;34.74
59240;BME280;45010;53.640;10.578;2022-12-07T12:56:47;100303.28;;;23.90;34.92
59240;BME280;45010;53.640;10.578;2022-12-07T13:02:55;100290.25;;;23.76;35.11
59240;BME280;45010;53.640;10.578;2022-12-07T13:09:29;100277.50;;;23.78;35.26
59240;BME280;45010;53.640;10.578;2022-12-07T13:12:31;100297.72;;;23.91;35.57
59240;BME280;45010;53.640;10.578;2022-12-07T13:18:37;100302.81;;;23.93;35.18
59240;BME280;45010;53.640;10.578;2022-12-07T13:24:37;100306.72;;;24.02;35.54
59240;BME280;45010;53.640;10.578;2022-12-07T13:27:40;100302.34;;;23.96;35.56
59240;BME280;45010;53.640;10.578;2022-12-07T13:30:46;100316.09;;;24.05;35.35
59240;BME280;45010;53.640;10.578;2022-12-07T13:33:48;100304.78;;;23.98;35.64
59240;BME280;45010;53.640;10.578;2022-12-07T13:36:48;100320.16;;;24.08;35.46
59240;BME280;45010;53.640;10.578;2022-12-07T13:39:50;100309.50;;;24.08;35.30
59240;BME280;45010;53.640;10.578;2022-12-07T13:42:59;100312.75;;;24.10;35.62
59240;BME280;45010;53.640;10.578;2022-12-07T13:46:10;100319.69;;;24.11;35.60
59240;BME280;45010;53.640;10.578;2022-12-07T13:49:23;100307.88;;;24.07;35.67
59240;BME280;45010;53.640;10.578;2022-12-07T13:52:26;100304.63;;;24.04;35.48
59240;BME280;45010;53.640;10.578;2022-12-07T13:55:28;100312.75;;;24.10;35.26
59240;BME280;45010;53.640;10.578;2022-12-07T13:58:31;100320.59;;;24.16;35.26
59240;BME280;45010;53.640;10.578;2022-12-07T14:01:33;100325.09;;;24.16;35.41
59240;BME280;45010;53.640;10.578;2022-12-07T14:07:34;100322.94;;;24.13;35.65
59240;BME280;45010;53.640;10.578;2022-12-07T14:10:37;100334.25;;;24.20;35.92
59240;BME280;45010;53.640;10.578;2022-12-07T14:17:15;100326.81;;;24.22;35.55
59240;BME280;45010;53.640;10.578;2022-12-07T14:20:48;100325.75;;;24.23;35.59
59240;BME280;45010;53.640;10.578;2022-12-07T14:24:17;100324.75;;;24.24;35.93
59240;BME280;45010;53.640;10.578;2022-12-07T14:27:23;100310.28;;;24.20;35.89
59240;BME280;45010;53.640;10.578;2022-12-07T14:30:30;100311.88;;;24.21;35.78
59240;BME280;45010;53.640;10.578;2022-12-07T14:33:32;100325.88;;;24.28;35.75
59240;BME280;45010;53.640;10.578;2022-12-07T14:36:32;100324.84;;;24.29;35.60
59240;BME280;45010;53.640;10.578;2022-12-07T14:39:32;100323.78;;;24.30;35.47
59240;BME280;45010;53.640;10.578;2022-12-07T14:42:34;100307.94;;;24.24;35.49
59240;BME280;45010;53.640;10.578;2022-12-07T14:45:34;100325.41;;;24.31;35.66
59240;BME280;45010;53.640;10.578;2022-12-07T14:48:34;100330.72;;;24.31;35.63
59240;BME280;45010;53.640;10.578;2022-12-07T14:51:37;100321.69;;;24.33;35.66
59240;BME280;45010;53.640;10.578;2022-12-07T14:54:39;100321.69;;;24.33;35.71
59240;BME280;45010;53.640;10.578;2022-12-07T14:57:41;100328.63;;;24.34;35.61
59240;BME280;45010;53.640;10.578;2022-12-07T15:00:42;100314.09;;;24.24;35.56
59240;BME280;45010;53.640;10.578;2022-12-07T15:03:42;100318.13;;;24.27;35.79
59240;BME280;45010;53.640;10.578;2022-12-07T15:06:54;100321.69;;;24.33;35.48
59240;BME280;45010;53.640;10.578;2022-12-07T15:09:55;100323.28;;;24.34;35.72
59240;BME280;45010;53.640;10.578;2022-12-07T15:12:56;100311.97;;;24.26;35.36
59240;BME280;45010;53.640;10.578;2022-12-07T15:16:20;100319.97;;;24.26;32.92
59240;BME280;45010;53.640;10.578;2022-12-07T15:19:22;100323.91;;;24.24;33.10
59240;BME280;45010;53.640;10.578;2022-12-07T15:22:24;100330.06;;;24.24;33.46
59240;BME280;45010;53.640;10.578;2022-12-07T15:25:24;100331.09;;;24.23;34.05
59240;BME280;45010;53.640;10.578;2022-12-07T15:28:25;100330.06;;;24.24;33.88
59240;BME280;45010;53.640;10.578;2022-12-07T15:31:25;100326.34;;;24.25;34.12
59240;BME280;45010;53.640;10.578;2022-12-07T15:34:26;100311.44;;;24.12;34.32
59240;BME280;45010;53.640;10.578;2022-12-07T15:37:28;100322.63;;;24.26;34.52
59240;BME280;45010;53.640;10.578;2022-12-07T15:40:28;100329.56;;;24.27;34.65
59240;BME280;45010;53.640;10.578;2022-12-07T15:43:29;100319.75;;;24.28;34.59
59240;BME280;45010;53.640;10.578;2022-12-07T15:46:48;100315.19;;;24.28;34.68
59240;BME280;45010;53.640;10.578;2022-12-07T15:49:48;100316.84;;;24.29;34.60
59240;BME280;45010;53.640;10.578;2022-12-07T15:52:49;100301.78;;;24.23;34.60
59240;BME280;45010;53.640;10.578;2022-12-07T15:55:49;100313.13;;;24.30;34.89
59240;BME280;45010;53.640;10.578;2022-12-07T15:58:49;100308.59;;;24.31;34.39
59240;BME280;45010;53.640;10.578;2022-12-07T16:01:50;100318.47;;;24.30;34.85
59240;BME280;45010;53.640;10.578;2022-12-07T16:04:51;100311.16;;;24.26;34.97
59240;BME280;45010;53.640;10.578;2022-12-07T16:07:51;100315.53;;;24.32;34.75
59240;BME280;45010;53.640;10.578;2022-12-07T16:10:51;100317.41;;;24.31;34.51
59240;BME280;45010;53.640;10.578;2022-12-07T16:13:52;100318.47;;;24.30;34.59
59240;BME280;45010;53.640;10.578;2022-12-07T16:16:52;100313.13;;;24.30;34.49
59240;BME280;45010;53.640;10.578;2022-12-07T16:19:53;100309.41;;;24.31;34.39
59240;BME280;45010;53.640;10.578;2022-12-07T16:22:53;100308.34;;;24.33;34.77
59240;BME280;45010;53.640;10.578;2022-12-07T16:25:54;100317.16;;;24.33;34.70
59240;BME280;45010;53.640;10.578;2022-12-07T16:28:54;100313.91;;;24.31;34.98
59240;BME280;45010;53.640;10.578;2022-12-07T16:31:55;100316.13;;;24.34;34.98
59240;BME280;45010;53.640;10.578;2022-12-07T16:34:55;100317.97;;;24.34;34.78
59240;BME280;45010;53.640;10.578;2022-12-07T16:37:56;100318.56;;;24.36;34.86
59240;BME280;45010;53.640;10.578;2022-12-07T16:40:56;100310.78;;;24.34;34.83
59240;BME280;45010;53.640;10.578;2022-12-07T16:43:56;100294.28;;;24.20;34.98
59240;BME280;45010;53.640;10.578;2022-12-07T16:46:57;100312.16;;;24.37;34.90
59240;BME280;45010;53.640;10.578;2022-12-07T16:49:57;100318.97;;;24.44;34.99
59240;BME280;45010;53.640;10.578;2022-12-07T16:52:57;100317.00;;;24.40;35.03
59240;BME280;45010;53.640;10.578;2022-12-07T16:55:58;100315.41;;;24.39;35.16
59240;BME280;45010;53.640;10.578;2022-12-07T16:58:58;100318.63;;;24.41;35.04
59240;BME280;45010;53.640;10.578;2022-12-07T17:01:59;100320.25;;;24.42;34.84